sensor_id;sensor_type;location;lat;lon;timestamp;temperature;humidity
17423;DHT22;8829;47.932;7.810;2023-11-21T00:02:04;9.10;99.90
17423;DHT22;8829;47.932;7.810;2023-11-21T00:04:32;9.10;99.90
17423;DHT22;8829;47.932;7.810;2023-11-21T00:06:59;9.10;99.90
17423;DHT22;8829;47.932;7.810;2023-11-21T00:09:26;9.10;99.90
17423;DHT22;8829;47.932;7.810;2023-11-21T00:11:52;9.10;99.90
17423;DHT22;8829;47.932;7.810;2023-11-21T00:14:19;9.10;99.90
17423;DHT22;8829;47.932;7.810;2023-11-21T00:16:46;9.10;99.90
17423;DHT22;8829;47.932;7.810;2023-11-21T00:19:13;9.00;99.90
17423;DHT22;8829;47.932;7.810;2023-11-21T00:21:41;9.00;99.90
17423;DHT22;8829;47.932;7.810;2023-11-21T00:24:09;9.10;99.90
17423;DHT22;8829;47.932;7.810;2023-11-21T00:26:39;9.10;99.90
17423;DHT22;8829;47.932;7.810;2023-11-21T00:29:05;9.00;99.90
17423;DHT22;8829;47.932;7.810;2023-11-21T00:31:33;9.00;99.90
17423;DHT22;8829;47.932;7.810;2023-11-21T00:34:02;8.90;99.90
17423;DHT22;8829;47.932;7.810;2023-11-21T00:36:29;8.90;99.90
17423;DHT22;8829;47.932;7.810;2023-11-21T00:38:57;8.90;99.90
17423;DHT22;8829;47.932;7.810;2023-11-21T00:41:24;8.90;99.90
17423;DHT22;8829;47.932;7.810;2023-11-21T00:43:53;8.80;99.90
17423;DHT22;8829;47.932;7.810;2023-11-21T00:46:20;8.80;99.90
17423;DHT22;8829;47.932;7.810;2023-11-21T00:48:47;8.80;99.90
17423;DHT22;8829;47.932;7.810;2023-11-21T00:51:13;8.90;99.90
17423;DHT22;8829;47.932;7.810;2023-11-21T00:53:40;8.90;99.90
17423;DHT22;8829;47.932;7.810;2023-11-21T00:56:08;8.80;99.90
17423;DHT22;8829;47.932;7.810;2023-11-21T00:58:35;8.80;99.90
17423;DHT22;8829;47.932;7.810;2023-11-21T01:01:02;8.70;99.90
17423;DHT22;8829;47.932;7.810;2023-11-21T01:03:29;8.70;99.90
17423;DHT22;8829;47.932;7.810;2023-11-21T01:05:56;8.70;99.90
17423;DHT22;8829;47.932;7.810;2023-11-21T01:08:22;8.60;99.90
17423;DHT22;8829;47.932;7.810;2023-11-21T01:10:50;8.60;99.90
17423;DHT22;8829;47.932;7.810;2023-11-21T01:13:18;8.60;99.90
17423;DHT22;8829;47.932;7.810;2023-11-21T01:15:44;8.70;99.90
17423;DHT22;8829;47.932;7.810;2023-11-21T01:18:11;8.70;99.90
17423;DHT22;8829;47.932;7.810;2023-11-21T01:20:38;8.70;99.90
17423;DHT22;8829;47.932;7.810;2023-11-21T01:23:05;8.70;99.90
17423;DHT22;8829;47.932;7.810;2023-11-21T01:25:32;8.70;99.90
17423;DHT22;8829;47.932;7.810;2023-11-21T01:27:59;8.70;99.90
17423;DHT22;8829;47.932;7.810;2023-11-21T01:30:27;8.70;99.90
17423;DHT22;8829;47.932;7.810;2023-11-21T01:32:53;8.70;99.90
17423;DHT22;8829;47.932;7.810;2023-11-21T01:35:20;8.70;99.90
17423;DHT22;8829;47.932;7.810;2023-11-21T01:37:47;8.80;99.90
17423;DHT22;8829;47.932;7.810;2023-11-21T01:40:14;8.70;99.90
17423;DHT22;8829;47.932;7.810;2023-11-21T01:42:41;8.60;99.90
17423;DHT22;8829;47.932;7.810;2023-11-21T01:45:09;8.60;99.90
17423;DHT22;8829;47.932;7.810;2023-11-21T01:47:40;8.60;99.90
17423;DHT22;8829;47.932;7.810;2023-11-21T01:50:08;8.70;99.90
17423;DHT22;8829;47.932;7.810;2023-11-21T01:52:38;8.70;99.90
17423;DHT22;8829;47.932;7.810;2023-11-21T01:55:07;8.70;99.90
17423;DHT22;8829;47.932;7.810;2023-11-21T01:57:35;8.80;99.90
17423;DHT22;8829;47.932;7.810;2023-11-21T02:00:04;8.70;99.90
17423;DHT22;8829;47.932;7.810;2023-11-21T02:02:42;8.70;99.90
17423;DHT22;8829;47.932;7.810;2023-11-21T02:05:09;8.70;99.90
17423;DHT22;8829;47.932;7.810;2023-11-21T02:07:38;8.60;99.90
17423;DHT22;8829;47.932;7.810;2023-11-21T02:10:05;8.70;99.90
17423;DHT22;8829;47.932;7.810;2023-11-21T02:12:32;8.70;99.90
17423;DHT22;8829;47.932;7.810;2023-11-21T02:15:00;8.70;99.90
17423;DHT22;8829;47.932;7.810;2023-11-21T02:17:28;8.70;99.90
17423;DHT22;8829;47.932;7.810;2023-11-21T02:19:56;8.70;99.90
17423;DHT22;8829;47.932;7.810;2023-11-21T02:22:25;8.60;99.90
17423;DHT22;8829;47.932;7.810;2023-11-21T02:24:54;8.50;99.90
17423;DHT22;8829;47.932;7.810;2023-11-21T02:27:21;8.50;99.90
17423;DHT22;8829;47.932;7.810;2023-11-21T02:29:49;8.60;99.90
17423;DHT22;8829;47.932;7.810;2023-11-21T02:32:15;8.60;99.90
17423;DHT22;8829;47.932;7.810;2023-11-21T02:34:44;8.70;99.90
17423;DHT22;8829;47.932;7.810;2023-11-21T02:37:11;8.60;99.90
17423;DHT22;8829;47.932;7.810;2023-11-21T02:39:38;8.60;99.90
17423;DHT22;8829;47.932;7.810;2023-11-21T02:42:06;8.70;99.90
17423;DHT22;8829;47.932;7.810;2023-11-21T02:44:33;8.70;99.90
17423;DHT22;8829;47.932;7.810;2023-11-21T02:47:00;8.60;99.90
17423;DHT22;8829;47.932;7.810;2023-11-21T02:49:26;8.60;99.90
17423;DHT22;8829;47.932;7.810;2023-11-21T02:51:53;8.60;99.90
17423;DHT22;8829;47.932;7.810;2023-11-21T02:54:21;8.60;99.90
17423;DHT22;8829;47.932;7.810;2023-11-21T02:56:48;8.70;99.90
17423;DHT22;8829;47.932;7.810;2023-11-21T02:59:16;8.70;99.90
17423;DHT22;8829;47.932;7.810;2023-11-21T03:01:43;8.60;99.90
17423;DHT22;8829;47.932;7.810;2023-11-21T03:04:09;8.60;99.90
17423;DHT22;8829;47.932;7.810;2023-11-21T03:06:36;8.70;99.90
17423;DHT22;8829;47.932;7.810;2023-11-21T03:09:03;8.70;99.90
17423;DHT22;8829;47.932;7.810;2023-11-21T03:11:32;8.70;99.90
17423;DHT22;8829;47.932;7.810;2023-11-21T03:13:58;8.60;99.90
17423;DHT22;8829;47.932;7.810;2023-11-21T03:16:26;8.60;99.90
17423;DHT22;8829;47.932;7.810;2023-11-21T03:18:54;8.60;99.90
17423;DHT22;8829;47.932;7.810;2023-11-21T03:21:21;8.70;99.90
17423;DHT22;8829;47.932;7.810;2023-11-21T03:23:47;8.70;99.90
17423;DHT22;8829;47.932;7.810;2023-11-21T03:26:14;8.70;99.90
17423;DHT22;8829;47.932;7.810;2023-11-21T03:28:42;8.60;99.90
17423;DHT22;8829;47.932;7.810;2023-11-21T03:31:09;8.60;99.90
17423;DHT22;8829;47.932;7.810;2023-11-21T03:33:37;8.70;99.90
17423;DHT22;8829;47.932;7.810;2023-11-21T03:36:04;8.80;99.90
17423;DHT22;8829;47.932;7.810;2023-11-21T03:38:33;8.70;99.90
17423;DHT22;8829;47.932;7.810;2023-11-21T03:41:00;8.70;99.90
17423;DHT22;8829;47.932;7.810;2023-11-21T03:43:26;8.80;99.90
17423;DHT22;8829;47.932;7.810;2023-11-21T03:45:53;8.70;99.90
17423;DHT22;8829;47.932;7.810;2023-11-21T03:48:20;8.80;99.90
17423;DHT22;8829;47.932;7.810;2023-11-21T03:50:48;8.80;99.90
17423;DHT22;8829;47.932;7.810;2023-11-21T03:53:15;8.80;99.90
17423;DHT22;8829;47.932;7.810;2023-11-21T03:55:42;8.70;99.90
17423;DHT22;8829;47.932;7.810;2023-11-21T03:58:08;8.70;99.90
17423;DHT22;8829;47.932;7.810;2023-11-21T04:00:35;8.70;99.90
17423;DHT22;8829;47.932;7.810;2023-11-21T04:03:02;8.70;99.90
17423;DHT22;8829;47.932;7.810;2023-11-21T04:05:29;8.60;99.90
17423;DHT22;8829;47.932;7.810;2023-11-21T04:07:58;8.60;99.90
17423;DHT22;8829;47.932;7.810;2023-11-21T04:10:24;8.70;99.90
17423;DHT22;8829;47.932;7.810;2023-11-21T04:12:51;8.80;99.90
17423;DHT22;8829;47.932;7.810;2023-11-21T04:15:18;8.90;99.90
17423;DHT22;8829;47.932;7.810;2023-11-21T04:17:44;8.80;99.90
17423;DHT22;8829;47.932;7.810;2023-11-21T04:20:11;8.80;99.90
17423;DHT22;8829;47.932;7.810;2023-11-21T04:22:38;8.60;99.90
17423;DHT22;8829;47.932;7.810;2023-11-21T04:25:09;8.60;99.90
17423;DHT22;8829;47.932;7.810;2023-11-21T04:27:38;8.70;99.90
17423;DHT22;8829;47.932;7.810;2023-11-21T04:30:06;8.80;99.90
17423;DHT22;8829;47.932;7.810;2023-11-21T04:32:33;8.80;99.90
17423;DHT22;8829;47.932;7.810;2023-11-21T04:35:00;8.60;99.90
17423;DHT22;8829;47.932;7.810;2023-11-21T04:37:27;8.50;99.90
17423;DHT22;8829;47.932;7.810;2023-11-21T04:39:53;8.40;99.90
17423;DHT22;8829;47.932;7.810;2023-11-21T04:42:22;8.50;99.90
17423;DHT22;8829;47.932;7.810;2023-11-21T04:44:48;8.50;99.90
17423;DHT22;8829;47.932;7.810;2023-11-21T04:47:15;8.60;99.90
17423;DHT22;8829;47.932;7.810;2023-11-21T04:49:43;8.70;99.90
17423;DHT22;8829;47.932;7.810;2023-11-21T04:52:10;8.80;99.90
17423;DHT22;8829;47.932;7.810;2023-11-21T04:54:37;8.80;99.90
17423;DHT22;8829;47.932;7.810;2023-11-21T04:57:05;8.60;99.90
17423;DHT22;8829;47.932;7.810;2023-11-21T04:59:34;8.60;99.90
17423;DHT22;8829;47.932;7.810;2023-11-21T05:02:00;8.70;99.90
17423;DHT22;8829;47.932;7.810;2023-11-21T05:04:27;8.70;99.90
17423;DHT22;8829;47.932;7.810;2023-11-21T05:06:54;8.70;99.90
17423;DHT22;8829;47.932;7.810;2023-11-21T05:09:21;8.70;99.90
17423;DHT22;8829;47.932;7.810;2023-11-21T05:11:48;8.80;99.90
17423;DHT22;8829;47.932;7.810;2023-11-21T05:14:15;8.80;99.90
17423;DHT22;8829;47.932;7.810;2023-11-21T05:16:43;8.80;99.90
17423;DHT22;8829;47.932;7.810;2023-11-21T05:19:10;8.80;99.90
17423;DHT22;8829;47.932;7.810;2023-11-21T05:21:38;8.80;99.90
17423;DHT22;8829;47.932;7.810;2023-11-21T05:24:06;8.70;99.90
17423;DHT22;8829;47.932;7.810;2023-11-21T05:26:32;8.90;99.90
17423;DHT22;8829;47.932;7.810;2023-11-21T05:28:59;8.90;99.90
17423;DHT22;8829;47.932;7.810;2023-11-21T05:31:26;8.80;99.90
17423;DHT22;8829;47.932;7.810;2023-11-21T05:33:54;8.60;99.90
17423;DHT22;8829;47.932;7.810;2023-11-21T05:36:22;8.60;99.90
17423;DHT22;8829;47.932;7.810;2023-11-21T05:38:49;8.60;99.90
17423;DHT22;8829;47.932;7.810;2023-11-21T05:41:15;8.60;99.90
17423;DHT22;8829;47.932;7.810;2023-11-21T05:43:42;8.70;99.90
17423;DHT22;8829;47.932;7.810;2023-11-21T05:46:09;8.70;99.90
17423;DHT22;8829;47.932;7.810;2023-11-21T05:48:36;8.70;99.90
17423;DHT22;8829;47.932;7.810;2023-11-21T05:51:06;8.70;99.90
17423;DHT22;8829;47.932;7.810;2023-11-21T05:53:33;8.50;99.90
17423;DHT22;8829;47.932;7.810;2023-11-21T05:56:00;8.50;99.90
17423;DHT22;8829;47.932;7.810;2023-11-21T05:58:27;8.50;99.90
17423;DHT22;8829;47.932;7.810;2023-11-21T06:00:53;8.50;99.90
17423;DHT22;8829;47.932;7.810;2023-11-21T06:03:20;8.50;99.90
17423;DHT22;8829;47.932;7.810;2023-11-21T06:05:48;8.40;99.90
17423;DHT22;8829;47.932;7.810;2023-11-21T06:08:16;8.40;99.90
17423;DHT22;8829;47.932;7.810;2023-11-21T06:10:44;8.50;99.90
17423;DHT22;8829;47.932;7.810;2023-11-21T06:13:14;8.50;99.90
17423;DHT22;8829;47.932;7.810;2023-11-21T06:15:41;8.50;99.90
17423;DHT22;8829;47.932;7.810;2023-11-21T06:18:08;8.60;99.90
17423;DHT22;8829;47.932;7.810;2023-11-21T06:20:36;8.60;99.90
17423;DHT22;8829;47.932;7.810;2023-11-21T06:23:03;8.60;99.90
17423;DHT22;8829;47.932;7.810;2023-11-21T06:25:32;8.60;99.90
17423;DHT22;8829;47.932;7.810;2023-11-21T06:28:01;8.50;99.90
17423;DHT22;8829;47.932;7.810;2023-11-21T06:30:28;8.60;99.90
17423;DHT22;8829;47.932;7.810;2023-11-21T06:32:55;8.50;99.90
17423;DHT22;8829;47.932;7.810;2023-11-21T06:35:22;8.60;99.90
17423;DHT22;8829;47.932;7.810;2023-11-21T06:37:48;8.60;99.90
17423;DHT22;8829;47.932;7.810;2023-11-21T06:40:17;8.60;99.90
17423;DHT22;8829;47.932;7.810;2023-11-21T06:42:45;8.50;99.90
17423;DHT22;8829;47.932;7.810;2023-11-21T06:45:12;8.40;99.90
17423;DHT22;8829;47.932;7.810;2023-11-21T06:47:40;8.30;99.90
17423;DHT22;8829;47.932;7.810;2023-11-21T06:50:07;8.30;99.90
17423;DHT22;8829;47.932;7.810;2023-11-21T06:52:34;8.30;99.90
17423;DHT22;8829;47.932;7.810;2023-11-21T06:55:01;8.30;99.90
17423;DHT22;8829;47.932;7.810;2023-11-21T06:57:28;8.20;99.90
17423;DHT22;8829;47.932;7.810;2023-11-21T06:59:56;8.20;99.90
17423;DHT22;8829;47.932;7.810;2023-11-21T07:02:23;7.90;99.90
17423;DHT22;8829;47.932;7.810;2023-11-21T07:04:50;7.90;99.90
17423;DHT22;8829;47.932;7.810;2023-11-21T07:07:18;8.00;99.90
17423;DHT22;8829;47.932;7.810;2023-11-21T07:09:45;7.90;99.90
17423;DHT22;8829;47.932;7.810;2023-11-21T07:12:11;7.90;99.90
17423;DHT22;8829;47.932;7.810;2023-11-21T07:14:39;8.00;99.90
17423;DHT22;8829;47.932;7.810;2023-11-21T07:17:10;8.00;99.90
17423;DHT22;8829;47.932;7.810;2023-11-21T07:19:37;8.00;99.90
17423;DHT22;8829;47.932;7.810;2023-11-21T07:22:04;8.10;99.90
17423;DHT22;8829;47.932;7.810;2023-11-21T07:24:31;8.10;99.90
17423;DHT22;8829;47.932;7.810;2023-11-21T07:26:58;8.20;99.90
17423;DHT22;8829;47.932;7.810;2023-11-21T07:29:26;8.10;99.90
17423;DHT22;8829;47.932;7.810;2023-11-21T07:31:55;8.20;99.90
17423;DHT22;8829;47.932;7.810;2023-11-21T07:34:23;8.20;99.90
17423;DHT22;8829;47.932;7.810;2023-11-21T07:36:49;8.20;99.90
17423;DHT22;8829;47.932;7.810;2023-11-21T07:39:16;8.10;99.90
17423;DHT22;8829;47.932;7.810;2023-11-21T07:41:43;8.20;99.90
17423;DHT22;8829;47.932;7.810;2023-11-21T07:44:14;8.30;99.90
17423;DHT22;8829;47.932;7.810;2023-11-21T07:46:42;8.40;99.90
17423;DHT22;8829;47.932;7.810;2023-11-21T07:49:09;8.50;99.90
17423;DHT22;8829;47.932;7.810;2023-11-21T07:51:37;8.50;99.90
17423;DHT22;8829;47.932;7.810;2023-11-21T07:54:04;8.50;99.90
17423;DHT22;8829;47.932;7.810;2023-11-21T07:56:32;8.60;99.90
17423;DHT22;8829;47.932;7.810;2023-11-21T07:58:58;8.50;99.90
17423;DHT22;8829;47.932;7.810;2023-11-21T08:01:25;8.60;99.90
17423;DHT22;8829;47.932;7.810;2023-11-21T08:03:53;8.60;99.90
17423;DHT22;8829;47.932;7.810;2023-11-21T08:06:22;8.40;99.90
17423;DHT22;8829;47.932;7.810;2023-11-21T08:08:50;8.50;99.90
17423;DHT22;8829;47.932;7.810;2023-11-21T08:11:17;8.50;99.90
17423;DHT22;8829;47.932;7.810;2023-11-21T08:13:45;8.70;99.90
17423;DHT22;8829;47.932;7.810;2023-11-21T08:16:12;8.70;99.90
17423;DHT22;8829;47.932;7.810;2023-11-21T08:18:39;8.50;99.90
17423;DHT22;8829;47.932;7.810;2023-11-21T08:21:06;8.50;99.90
17423;DHT22;8829;47.932;7.810;2023-11-21T08:23:33;8.40;99.90
17423;DHT22;8829;47.932;7.810;2023-11-21T08:26:02;8.40;99.90
17423;DHT22;8829;47.932;7.810;2023-11-21T08:28:29;8.40;99.90
17423;DHT22;8829;47.932;7.810;2023-11-21T08:30:55;8.30;99.90
17423;DHT22;8829;47.932;7.810;2023-11-21T08:33:22;8.20;99.90
17423;DHT22;8829;47.932;7.810;2023-11-21T08:35:49;8.20;99.90
17423;DHT22;8829;47.932;7.810;2023-11-21T08:38:16;8.30;99.90
17423;DHT22;8829;47.932;7.810;2023-11-21T08:40:43;8.30;99.90
17423;DHT22;8829;47.932;7.810;2023-11-21T08:43:11;8.50;99.90
17423;DHT22;8829;47.932;7.810;2023-11-21T08:45:39;8.60;99.90
17423;DHT22;8829;47.932;7.810;2023-11-21T08:48:06;8.70;99.90
17423;DHT22;8829;47.932;7.810;2023-11-21T08:50:32;8.80;99.90
17423;DHT22;8829;47.932;7.810;2023-11-21T08:52:59;8.70;99.90
17423;DHT22;8829;47.932;7.810;2023-11-21T08:55:26;8.90;99.90
17423;DHT22;8829;47.932;7.810;2023-11-21T08:57:54;8.70;99.90
17423;DHT22;8829;47.932;7.810;2023-11-21T09:00:22;8.40;99.90
17423;DHT22;8829;47.932;7.810;2023-11-21T09:02:49;8.40;99.90
17423;DHT22;8829;47.932;7.810;2023-11-21T09:05:15;8.40;99.90
17423;DHT22;8829;47.932;7.810;2023-11-21T09:07:42;8.50;99.90
17423;DHT22;8829;47.932;7.810;2023-11-21T09:10:11;8.50;99.90
17423;DHT22;8829;47.932;7.810;2023-11-21T09:12:38;8.60;99.90
17423;DHT22;8829;47.932;7.810;2023-11-21T09:15:06;8.70;99.90
17423;DHT22;8829;47.932;7.810;2023-11-21T09:17:36;8.70;99.90
17423;DHT22;8829;47.932;7.810;2023-11-21T09:20:04;8.70;99.90
17423;DHT22;8829;47.932;7.810;2023-11-21T09:22:31;8.60;99.90
17423;DHT22;8829;47.932;7.810;2023-11-21T09:24:58;8.60;99.90
17423;DHT22;8829;47.932;7.810;2023-11-21T09:27:25;8.70;99.90
17423;DHT22;8829;47.932;7.810;2023-11-21T09:29:52;8.70;99.90
17423;DHT22;8829;47.932;7.810;2023-11-21T09:32:20;8.70;99.90
17423;DHT22;8829;47.932;7.810;2023-11-21T09:34:48;8.70;99.90
17423;DHT22;8829;47.932;7.810;2023-11-21T09:37:15;8.70;99.90
17423;DHT22;8829;47.932;7.810;2023-11-21T09:39:42;8.70;99.90
17423;DHT22;8829;47.932;7.810;2023-11-21T09:42:11;8.90;99.90
17423;DHT22;8829;47.932;7.810;2023-11-21T09:44:45;9.00;99.90
17423;DHT22;8829;47.932;7.810;2023-11-21T09:47:15;9.10;99.90
17423;DHT22;8829;47.932;7.810;2023-11-21T09:49:44;9.20;99.90
17423;DHT22;8829;47.932;7.810;2023-11-21T09:52:18;9.20;99.90
17423;DHT22;8829;47.932;7.810;2023-11-21T09:54:48;9.20;99.90
17423;DHT22;8829;47.932;7.810;2023-11-21T09:57:16;9.20;99.90
17423;DHT22;8829;47.932;7.810;2023-11-21T09:59:44;9.10;99.90
17423;DHT22;8829;47.932;7.810;2023-11-21T10:02:11;9.10;99.90
17423;DHT22;8829;47.932;7.810;2023-11-21T10:04:39;9.20;99.90
17423;DHT22;8829;47.932;7.810;2023-11-21T10:07:06;9.40;99.90
17423;DHT22;8829;47.932;7.810;2023-11-21T10:09:36;9.50;99.90
17423;DHT22;8829;47.932;7.810;2023-11-21T10:12:06;9.10;99.90
17423;DHT22;8829;47.932;7.810;2023-11-21T10:14:34;9.00;99.90
17423;DHT22;8829;47.932;7.810;2023-11-21T10:17:03;8.90;99.90
17423;DHT22;8829;47.932;7.810;2023-11-21T10:19:31;8.90;99.90
17423;DHT22;8829;47.932;7.810;2023-11-21T10:21:58;8.80;99.90
17423;DHT22;8829;47.932;7.810;2023-11-21T10:24:27;8.50;99.90
17423;DHT22;8829;47.932;7.810;2023-11-21T10:26:55;8.50;99.90
17423;DHT22;8829;47.932;7.810;2023-11-21T10:29:22;8.60;99.90
17423;DHT22;8829;47.932;7.810;2023-11-21T10:31:49;8.60;99.90
17423;DHT22;8829;47.932;7.810;2023-11-21T10:34:18;8.60;99.90
17423;DHT22;8829;47.932;7.810;2023-11-21T10:36:45;8.60;99.90
17423;DHT22;8829;47.932;7.810;2023-11-21T10:39:14;8.60;99.90
17423;DHT22;8829;47.932;7.810;2023-11-21T10:41:44;8.50;99.90
17423;DHT22;8829;47.932;7.810;2023-11-21T10:44:13;8.50;99.90
17423;DHT22;8829;47.932;7.810;2023-11-21T10:46:45;8.50;99.90
17423;DHT22;8829;47.932;7.810;2023-11-21T10:49:16;8.60;99.90
17423;DHT22;8829;47.932;7.810;2023-11-21T10:51:44;8.70;99.90
17423;DHT22;8829;47.932;7.810;2023-11-21T10:54:10;8.80;99.90
17423;DHT22;8829;47.932;7.810;2023-11-21T10:56:39;8.70;99.90
17423;DHT22;8829;47.932;7.810;2023-11-21T10:59:10;8.80;99.90
17423;DHT22;8829;47.932;7.810;2023-11-21T11:01:42;8.80;99.90
17423;DHT22;8829;47.932;7.810;2023-11-21T11:04:11;9.00;99.90
17423;DHT22;8829;47.932;7.810;2023-11-21T11:06:42;9.10;99.90
17423;DHT22;8829;47.932;7.810;2023-11-21T11:09:11;9.30;99.90
17423;DHT22;8829;47.932;7.810;2023-11-21T11:11:39;9.10;99.90
17423;DHT22;8829;47.932;7.810;2023-11-21T11:14:08;9.10;99.90
17423;DHT22;8829;47.932;7.810;2023-11-21T11:16:38;9.20;99.90
17423;DHT22;8829;47.932;7.810;2023-11-21T11:19:08;9.40;99.90
17423;DHT22;8829;47.932;7.810;2023-11-21T11:21:45;9.40;99.90
17423;DHT22;8829;47.932;7.810;2023-11-21T11:24:25;9.40;99.90
17423;DHT22;8829;47.932;7.810;2023-11-21T11:26:57;9.40;99.90
17423;DHT22;8829;47.932;7.810;2023-11-21T11:29:35;9.00;99.90
17423;DHT22;8829;47.932;7.810;2023-11-21T11:32:13;9.00;99.90
17423;DHT22;8829;47.932;7.810;2023-11-21T11:34:48;8.80;99.90
17423;DHT22;8829;47.932;7.810;2023-11-21T11:37:18;9.00;99.90
17423;DHT22;8829;47.932;7.810;2023-11-21T11:39:45;9.00;99.90
17423;DHT22;8829;47.932;7.810;2023-11-21T11:42:13;8.70;99.90
17423;DHT22;8829;47.932;7.810;2023-11-21T11:44:52;8.80;99.90
17423;DHT22;8829;47.932;7.810;2023-11-21T11:47:22;8.80;99.90
17423;DHT22;8829;47.932;7.810;2023-11-21T11:50:03;8.80;99.90
17423;DHT22;8829;47.932;7.810;2023-11-21T11:52:36;8.60;99.90
17423;DHT22;8829;47.932;7.810;2023-11-21T11:55:05;8.70;99.90
17423;DHT22;8829;47.932;7.810;2023-11-21T11:57:34;8.60;99.90
17423;DHT22;8829;47.932;7.810;2023-11-21T12:00:08;8.70;99.90
17423;DHT22;8829;47.932;7.810;2023-11-21T12:02:36;8.80;99.90
17423;DHT22;8829;47.932;7.810;2023-11-21T12:05:09;8.90;99.90
17423;DHT22;8829;47.932;7.810;2023-11-21T12:07:46;9.00;99.90
17423;DHT22;8829;47.932;7.810;2023-11-21T12:10:14;9.10;99.90
17423;DHT22;8829;47.932;7.810;2023-11-21T12:12:44;9.10;99.90
17423;DHT22;8829;47.932;7.810;2023-11-21T12:15:11;9.10;99.90
17423;DHT22;8829;47.932;7.810;2023-11-21T12:17:38;9.20;99.90
17423;DHT22;8829;47.932;7.810;2023-11-21T12:20:08;9.20;99.90
17423;DHT22;8829;47.932;7.810;2023-11-21T12:22:44;9.20;99.90
17423;DHT22;8829;47.932;7.810;2023-11-21T12:25:13;9.30;99.90
17423;DHT22;8829;47.932;7.810;2023-11-21T12:27:42;9.30;99.90
17423;DHT22;8829;47.932;7.810;2023-11-21T12:30:11;9.30;99.90
17423;DHT22;8829;47.932;7.810;2023-11-21T12:32:41;9.30;99.90
17423;DHT22;8829;47.932;7.810;2023-11-21T12:35:10;9.30;99.90
17423;DHT22;8829;47.932;7.810;2023-11-21T12:37:37;9.20;99.90
17423;DHT22;8829;47.932;7.810;2023-11-21T12:40:06;9.20;99.90
17423;DHT22;8829;47.932;7.810;2023-11-21T12:42:37;9.30;99.90
17423;DHT22;8829;47.932;7.810;2023-11-21T12:45:09;9.40;99.90
17423;DHT22;8829;47.932;7.810;2023-11-21T12:47:40;9.30;99.90
17423;DHT22;8829;47.932;7.810;2023-11-21T12:50:10;9.20;99.90
17423;DHT22;8829;47.932;7.810;2023-11-21T12:52:41;9.20;99.90
17423;DHT22;8829;47.932;7.810;2023-11-21T12:55:09;8.70;99.90
17423;DHT22;8829;47.932;7.810;2023-11-21T12:57:41;8.70;99.90
17423;DHT22;8829;47.932;7.810;2023-11-21T13:00:10;8.40;99.90
17423;DHT22;8829;47.932;7.810;2023-11-21T13:02:51;8.40;99.90
17423;DHT22;8829;47.932;7.810;2023-11-21T13:05:26;8.50;99.90
17423;DHT22;8829;47.932;7.810;2023-11-21T13:07:54;8.40;99.90
17423;DHT22;8829;47.932;7.810;2023-11-21T13:10:23;8.50;99.90
17423;DHT22;8829;47.932;7.810;2023-11-21T13:12:53;8.60;99.90
17423;DHT22;8829;47.932;7.810;2023-11-21T13:15:20;8.50;99.90
17423;DHT22;8829;47.932;7.810;2023-11-21T13:17:47;8.60;99.90
17423;DHT22;8829;47.932;7.810;2023-11-21T13:20:15;8.50;99.90
17423;DHT22;8829;47.932;7.810;2023-11-21T13:22:48;8.60;99.90
17423;DHT22;8829;47.932;7.810;2023-11-21T13:25:15;8.50;99.90
17423;DHT22;8829;47.932;7.810;2023-11-21T13:27:43;8.40;99.90
17423;DHT22;8829;47.932;7.810;2023-11-21T13:30:12;8.40;99.90
17423;DHT22;8829;47.932;7.810;2023-11-21T13:32:40;8.30;99.90
17423;DHT22;8829;47.932;7.810;2023-11-21T13:35:07;8.10;99.90
17423;DHT22;8829;47.932;7.810;2023-11-21T13:37:40;8.20;99.90
17423;DHT22;8829;47.932;7.810;2023-11-21T13:40:09;8.30;99.90
17423;DHT22;8829;47.932;7.810;2023-11-21T13:42:40;8.20;99.90
17423;DHT22;8829;47.932;7.810;2023-11-21T13:45:09;8.30;99.90
17423;DHT22;8829;47.932;7.810;2023-11-21T13:47:37;8.20;99.90
17423;DHT22;8829;47.932;7.810;2023-11-21T13:50:06;8.10;99.90
17423;DHT22;8829;47.932;7.810;2023-11-21T13:52:42;8.10;99.90
17423;DHT22;8829;47.932;7.810;2023-11-21T13:55:10;8.10;99.90
17423;DHT22;8829;47.932;7.810;2023-11-21T13:57:40;8.00;99.90
17423;DHT22;8829;47.932;7.810;2023-11-21T14:00:11;8.00;99.90
17423;DHT22;8829;47.932;7.810;2023-11-21T14:02:58;8.00;99.90
17423;DHT22;8829;47.932;7.810;2023-11-21T14:05:26;8.10;99.90
17423;DHT22;8829;47.932;7.810;2023-11-21T14:07:55;8.10;99.90
17423;DHT22;8829;47.932;7.810;2023-11-21T14:10:29;8.10;99.90
17423;DHT22;8829;47.932;7.810;2023-11-21T14:13:03;8.10;99.90
17423;DHT22;8829;47.932;7.810;2023-11-21T14:15:31;8.10;99.90
17423;DHT22;8829;47.932;7.810;2023-11-21T14:17:58;8.10;99.90
17423;DHT22;8829;47.932;7.810;2023-11-21T14:20:28;8.00;99.90
17423;DHT22;8829;47.932;7.810;2023-11-21T14:22:55;8.00;99.90
17423;DHT22;8829;47.932;7.810;2023-11-21T14:25:22;8.00;99.90
17423;DHT22;8829;47.932;7.810;2023-11-21T14:27:50;8.00;99.90
17423;DHT22;8829;47.932;7.810;2023-11-21T14:30:17;8.00;99.90
17423;DHT22;8829;47.932;7.810;2023-11-21T14:32:47;8.10;99.90
17423;DHT22;8829;47.932;7.810;2023-11-21T14:35:15;8.00;99.90
17423;DHT22;8829;47.932;7.810;2023-11-21T14:37:43;8.10;99.90
17423;DHT22;8829;47.932;7.810;2023-11-21T14:40:11;8.10;99.90
17423;DHT22;8829;47.932;7.810;2023-11-21T14:42:41;8.10;99.90
17423;DHT22;8829;47.932;7.810;2023-11-21T14:45:11;8.10;99.90
17423;DHT22;8829;47.932;7.810;2023-11-21T14:47:38;8.00;99.90
17423;DHT22;8829;47.932;7.810;2023-11-21T14:50:09;8.10;99.90
17423;DHT22;8829;47.932;7.810;2023-11-21T14:53:04;8.30;99.90
17423;DHT22;8829;47.932;7.810;2023-11-21T14:55:31;8.30;99.90
17423;DHT22;8829;47.932;7.810;2023-11-21T14:58:06;8.30;99.90
17423;DHT22;8829;47.932;7.810;2023-11-21T15:00:37;8.20;99.90
17423;DHT22;8829;47.932;7.810;2023-11-21T15:03:11;8.10;99.90
17423;DHT22;8829;47.932;7.810;2023-11-21T15:05:47;8.00;99.90
17423;DHT22;8829;47.932;7.810;2023-11-21T15:08:14;8.10;99.90
17423;DHT22;8829;47.932;7.810;2023-11-21T15:10:47;7.90;99.90
17423;DHT22;8829;47.932;7.810;2023-11-21T15:13:18;7.90;99.90
17423;DHT22;8829;47.932;7.810;2023-11-21T15:15:45;7.90;99.90
17423;DHT22;8829;47.932;7.810;2023-11-21T15:18:12;7.90;99.90
17423;DHT22;8829;47.932;7.810;2023-11-21T15:20:39;7.90;99.90
17423;DHT22;8829;47.932;7.810;2023-11-21T15:23:06;7.80;99.90
17423;DHT22;8829;47.932;7.810;2023-11-21T15:25:33;7.90;99.90
17423;DHT22;8829;47.932;7.810;2023-11-21T15:28:01;7.80;99.90
17423;DHT22;8829;47.932;7.810;2023-11-21T15:30:28;7.80;99.90
17423;DHT22;8829;47.932;7.810;2023-11-21T15:32:58;7.70;99.90
17423;DHT22;8829;47.932;7.810;2023-11-21T15:35:25;7.70;99.90
17423;DHT22;8829;47.932;7.810;2023-11-21T15:37:53;7.70;99.90
17423;DHT22;8829;47.932;7.810;2023-11-21T15:40:22;7.60;99.90
17423;DHT22;8829;47.932;7.810;2023-11-21T15:42:49;7.60;99.90
17423;DHT22;8829;47.932;7.810;2023-11-21T15:45:16;7.60;99.90
17423;DHT22;8829;47.932;7.810;2023-11-21T15:47:46;7.60;99.90
17423;DHT22;8829;47.932;7.810;2023-11-21T15:50:14;7.60;99.90
17423;DHT22;8829;47.932;7.810;2023-11-21T15:52:41;7.70;99.90
17423;DHT22;8829;47.932;7.810;2023-11-21T15:55:09;7.70;99.90
17423;DHT22;8829;47.932;7.810;2023-11-21T15:57:36;7.80;99.90
17423;DHT22;8829;47.932;7.810;2023-11-21T16:00:03;7.80;99.90
17423;DHT22;8829;47.932;7.810;2023-11-21T16:02:37;7.80;99.90
17423;DHT22;8829;47.932;7.810;2023-11-21T16:05:04;7.70;99.90
17423;DHT22;8829;47.932;7.810;2023-11-21T16:07:32;7.60;99.90
17423;DHT22;8829;47.932;7.810;2023-11-21T16:10:00;7.70;99.90